sensor_id;sensor_type;location;lat;lon;timestamp;P1;durP1;ratioP1;P2;durP2;ratioP2
69854;SDS011;57146;48.140;16.304;2023-10-31T00:02:08;3.92;;;0.40;;
69854;SDS011;57146;48.140;16.304;2023-10-31T00:04:36;4.22;;;0.47;;
69854;SDS011;57146;48.140;16.304;2023-10-31T00:07:03;3.47;;;0.30;;
69854;SDS011;57146;48.140;16.304;2023-10-31T00:09:30;3.65;;;0.40;;
69854;SDS011;57146;48.140;16.304;2023-10-31T00:11:57;3.10;;;0.50;;
69854;SDS011;57146;48.140;16.304;2023-10-31T00:14:26;3.83;;;0.30;;
69854;SDS011;57146;48.140;16.304;2023-10-31T00:16:58;4.15;;;0.52;;
69854;SDS011;57146;48.140;16.304;2023-10-31T00:19:26;3.67;;;0.57;;
69854;SDS011;57146;48.140;16.304;2023-10-31T00:21:53;5.20;;;0.30;;
69854;SDS011;57146;48.140;16.304;2023-10-31T00:24:21;4.90;;;0.32;;
69854;SDS011;57146;48.140;16.304;2023-10-31T00:26:48;3.63;;;0.47;;
69854;SDS011;57146;48.140;16.304;2023-10-31T00:29:15;4.10;;;0.40;;
69854;SDS011;57146;48.140;16.304;2023-10-31T00:31:42;5.47;;;0.40;;
69854;SDS011;57146;48.140;16.304;2023-10-31T00:34:10;3.47;;;0.20;;
69854;SDS011;57146;48.140;16.304;2023-10-31T00:36:37;3.78;;;0.32;;
69854;SDS011;57146;48.140;16.304;2023-10-31T00:39:04;4.43;;;0.38;;
69854;SDS011;57146;48.140;16.304;2023-10-31T00:41:31;2.95;;;0.30;;
69854;SDS011;57146;48.140;16.304;2023-10-31T00:43:58;4.03;;;0.30;;
69854;SDS011;57146;48.140;16.304;2023-10-31T00:46:25;4.40;;;0.40;;
69854;SDS011;57146;48.140;16.304;2023-10-31T00:48:52;4.60;;;0.30;;
69854;SDS011;57146;48.140;16.304;2023-10-31T00:51:19;4.78;;;0.80;;
69854;SDS011;57146;48.140;16.304;2023-10-31T00:53:46;3.53;;;0.40;;
69854;SDS011;57146;48.140;16.304;2023-10-31T00:56:13;3.50;;;0.38;;
69854;SDS011;57146;48.140;16.304;2023-10-31T00:58:40;3.20;;;0.47;;
69854;SDS011;57146;48.140;16.304;2023-10-31T01:01:07;3.30;;;0.38;;
69854;SDS011;57146;48.140;16.304;2023-10-31T01:03:34;3.92;;;0.50;;
69854;SDS011;57146;48.140;16.304;2023-10-31T01:06:01;4.05;;;0.50;;
69854;SDS011;57146;48.140;16.304;2023-10-31T01:08:28;4.75;;;0.30;;
69854;SDS011;57146;48.140;16.304;2023-10-31T01:10:57;4.47;;;0.40;;
69854;SDS011;57146;48.140;16.304;2023-10-31T01:13:24;3.28;;;0.40;;
69854;SDS011;57146;48.140;16.304;2023-10-31T01:15:50;3.88;;;0.38;;
69854;SDS011;57146;48.140;16.304;2023-10-31T01:18:19;4.03;;;0.50;;
69854;SDS011;57146;48.140;16.304;2023-10-31T01:20:46;2.72;;;0.30;;
69854;SDS011;57146;48.140;16.304;2023-10-31T01:23:17;3.63;;;0.40;;
69854;SDS011;57146;48.140;16.304;2023-10-31T01:25:44;5.15;;;0.40;;
69854;SDS011;57146;48.140;16.304;2023-10-31T01:28:11;4.78;;;0.40;;
69854;SDS011;57146;48.140;16.304;2023-10-31T01:30:38;5.05;;;0.40;;
69854;SDS011;57146;48.140;16.304;2023-10-31T01:33:05;3.95;;;0.40;;
69854;SDS011;57146;48.140;16.304;2023-10-31T01:35:33;5.00;;;0.60;;
69854;SDS011;57146;48.140;16.304;2023-10-31T01:38:00;3.75;;;0.35;;
69854;SDS011;57146;48.140;16.304;2023-10-31T01:40:27;6.90;;;0.40;;
69854;SDS011;57146;48.140;16.304;2023-10-31T01:42:54;5.82;;;0.50;;
69854;SDS011;57146;48.140;16.304;2023-10-31T01:45:22;4.30;;;0.50;;
69854;SDS011;57146;48.140;16.304;2023-10-31T01:47:49;3.67;;;0.40;;
69854;SDS011;57146;48.140;16.304;2023-10-31T01:50:16;3.58;;;0.60;;
69854;SDS011;57146;48.140;16.304;2023-10-31T01:52:45;2.80;;;0.35;;
69854;SDS011;57146;48.140;16.304;2023-10-31T01:55:13;4.05;;;0.43;;
69854;SDS011;57146;48.140;16.304;2023-10-31T01:57:43;3.10;;;0.40;;
69854;SDS011;57146;48.140;16.304;2023-10-31T02:00:12;4.13;;;0.85;;
69854;SDS011;57146;48.140;16.304;2023-10-31T02:02:41;4.18;;;0.63;;
69854;SDS011;57146;48.140;16.304;2023-10-31T02:05:09;3.95;;;0.50;;
69854;SDS011;57146;48.140;16.304;2023-10-31T02:07:37;4.18;;;0.63;;
69854;SDS011;57146;48.140;16.304;2023-10-31T02:10:05;4.00;;;0.40;;
69854;SDS011;57146;48.140;16.304;2023-10-31T02:12:33;3.47;;;0.43;;
69854;SDS011;57146;48.140;16.304;2023-10-31T02:15:05;3.00;;;0.30;;
69854;SDS011;57146;48.140;16.304;2023-10-31T02:17:33;4.28;;;0.50;;
69854;SDS011;57146;48.140;16.304;2023-10-31T02:20:00;5.00;;;0.93;;
69854;SDS011;57146;48.140;16.304;2023-10-31T02:22:27;3.45;;;0.40;;
69854;SDS011;57146;48.140;16.304;2023-10-31T02:24:54;4.47;;;0.60;;
69854;SDS011;57146;48.140;16.304;2023-10-31T02:27:21;4.57;;;0.30;;
69854;SDS011;57146;48.140;16.304;2023-10-31T02:29:48;4.38;;;0.40;;
69854;SDS011;57146;48.140;16.304;2023-10-31T02:32:16;4.13;;;0.22;;
69854;SDS011;57146;48.140;16.304;2023-10-31T02:34:44;6.10;;;0.45;;
69854;SDS011;57146;48.140;16.304;2023-10-31T02:37:12;3.97;;;0.40;;
69854;SDS011;57146;48.140;16.304;2023-10-31T02:39:40;4.47;;;0.50;;
69854;SDS011;57146;48.140;16.304;2023-10-31T02:42:08;2.97;;;0.20;;
69854;SDS011;57146;48.140;16.304;2023-10-31T02:44:35;3.25;;;0.20;;
69854;SDS011;57146;48.140;16.304;2023-10-31T02:47:02;5.35;;;0.30;;
69854;SDS011;57146;48.140;16.304;2023-10-31T02:49:29;5.00;;;0.28;;
69854;SDS011;57146;48.140;16.304;2023-10-31T02:51:56;3.88;;;0.40;;
69854;SDS011;57146;48.140;16.304;2023-10-31T02:54:23;3.22;;;0.40;;
69854;SDS011;57146;48.140;16.304;2023-10-31T02:56:50;3.88;;;0.45;;
69854;SDS011;57146;48.140;16.304;2023-10-31T02:59:18;3.20;;;0.30;;
69854;SDS011;57146;48.140;16.304;2023-10-31T03:01:45;5.45;;;0.40;;
69854;SDS011;57146;48.140;16.304;2023-10-31T03:04:13;4.47;;;0.50;;
69854;SDS011;57146;48.140;16.304;2023-10-31T03:06:40;5.55;;;0.45;;
69854;SDS011;57146;48.140;16.304;2023-10-31T03:09:07;3.58;;;0.40;;
69854;SDS011;57146;48.140;16.304;2023-10-31T03:11:35;3.47;;;0.50;;
69854;SDS011;57146;48.140;16.304;2023-10-31T03:14:02;4.38;;;0.30;;
69854;SDS011;57146;48.140;16.304;2023-10-31T03:16:29;4.85;;;0.40;;
69854;SDS011;57146;48.140;16.304;2023-10-31T03:18:56;4.55;;;0.40;;
69854;SDS011;57146;48.140;16.304;2023-10-31T03:21:23;4.70;;;0.60;;
69854;SDS011;57146;48.140;16.304;2023-10-31T03:23:50;4.13;;;0.60;;
69854;SDS011;57146;48.140;16.304;2023-10-31T03:26:19;3.53;;;0.60;;
69854;SDS011;57146;48.140;16.304;2023-10-31T03:28:46;4.38;;;0.50;;
69854;SDS011;57146;48.140;16.304;2023-10-31T03:31:13;2.25;;;0.20;;
69854;SDS011;57146;48.140;16.304;2023-10-31T03:33:42;2.95;;;0.10;;
69854;SDS011;57146;48.140;16.304;2023-10-31T03:36:09;2.80;;;0.40;;
69854;SDS011;57146;48.140;16.304;2023-10-31T03:38:38;1.17;;;0.00;;
69854;SDS011;57146;48.140;16.304;2023-10-31T03:41:05;1.73;;;0.10;;
69854;SDS011;57146;48.140;16.304;2023-10-31T03:43:32;0.70;;;0.00;;
69854;SDS011;57146;48.140;16.304;2023-10-31T03:45:59;1.13;;;0.00;;
69854;SDS011;57146;48.140;16.304;2023-10-31T03:48:27;0.60;;;0.00;;
69854;SDS011;57146;48.140;16.304;2023-10-31T03:50:54;1.17;;;0.00;;
69854;SDS011;57146;48.140;16.304;2023-10-31T03:53:21;0.22;;;0.00;;
69854;SDS011;57146;48.140;16.304;2023-10-31T03:55:48;0.55;;;0.00;;
69854;SDS011;57146;48.140;16.304;2023-10-31T03:58:15;0.20;;;0.00;;
69854;SDS011;57146;48.140;16.304;2023-10-31T04:00:42;0.32;;;0.00;;
69854;SDS011;57146;48.140;16.304;2023-10-31T04:03:09;1.80;;;0.00;;
69854;SDS011;57146;48.140;16.304;2023-10-31T04:05:36;0.17;;;0.00;;
69854;SDS011;57146;48.140;16.304;2023-10-31T04:08:03;0.57;;;0.00;;
69854;SDS011;57146;48.140;16.304;2023-10-31T04:10:30;0.30;;;0.00;;
69854;SDS011;57146;48.140;16.304;2023-10-31T04:12:57;0.50;;;0.00;;
69854;SDS011;57146;48.140;16.304;2023-10-31T04:15:24;0.50;;;0.00;;
69854;SDS011;57146;48.140;16.304;2023-10-31T04:17:51;0.68;;;0.00;;
69854;SDS011;57146;48.140;16.304;2023-10-31T04:20:18;1.85;;;0.00;;
69854;SDS011;57146;48.140;16.304;2023-10-31T04:22:45;3.70;;;0.00;;
69854;SDS011;57146;48.140;16.304;2023-10-31T04:25:12;2.00;;;0.00;;
69854;SDS011;57146;48.140;16.304;2023-10-31T04:27:39;0.82;;;0.00;;
69854;SDS011;57146;48.140;16.304;2023-10-31T04:30:06;0.52;;;0.00;;
69854;SDS011;57146;48.140;16.304;2023-10-31T04:32:36;0.70;;;0.00;;
69854;SDS011;57146;48.140;16.304;2023-10-31T04:35:03;0.68;;;0.00;;
69854;SDS011;57146;48.140;16.304;2023-10-31T04:37:30;0.47;;;0.00;;
69854;SDS011;57146;48.140;16.304;2023-10-31T04:40:02;0.80;;;0.00;;
69854;SDS011;57146;48.140;16.304;2023-10-31T04:42:29;0.70;;;0.00;;
69854;SDS011;57146;48.140;16.304;2023-10-31T04:44:56;0.50;;;0.00;;
69854;SDS011;57146;48.140;16.304;2023-10-31T04:47:22;1.00;;;0.00;;
69854;SDS011;57146;48.140;16.304;2023-10-31T04:49:50;0.52;;;0.00;;
69854;SDS011;57146;48.140;16.304;2023-10-31T04:52:17;0.95;;;0.00;;
69854;SDS011;57146;48.140;16.304;2023-10-31T04:54:44;1.98;;;0.00;;
69854;SDS011;57146;48.140;16.304;2023-10-31T04:57:11;0.57;;;0.00;;
69854;SDS011;57146;48.140;16.304;2023-10-31T04:59:38;0.30;;;0.00;;
69854;SDS011;57146;48.140;16.304;2023-10-31T05:02:06;1.37;;;0.00;;
69854;SDS011;57146;48.140;16.304;2023-10-31T05:04:33;0.90;;;0.00;;
69854;SDS011;57146;48.140;16.304;2023-10-31T05:07:01;0.85;;;0.00;;
69854;SDS011;57146;48.140;16.304;2023-10-31T05:09:29;0.65;;;0.00;;
69854;SDS011;57146;48.140;16.304;2023-10-31T05:11:58;0.40;;;0.00;;
69854;SDS011;57146;48.140;16.304;2023-10-31T05:14:25;0.67;;;0.00;;
69854;SDS011;57146;48.140;16.304;2023-10-31T05:16:52;0.40;;;0.00;;
69854;SDS011;57146;48.140;16.304;2023-10-31T05:19:19;0.77;;;0.00;;
69854;SDS011;57146;48.140;16.304;2023-10-31T05:21:48;0.40;;;0.00;;
69854;SDS011;57146;48.140;16.304;2023-10-31T05:24:15;0.65;;;0.00;;
69854;SDS011;57146;48.140;16.304;2023-10-31T05:26:44;0.80;;;0.00;;
69854;SDS011;57146;48.140;16.304;2023-10-31T05:29:11;0.60;;;0.00;;
69854;SDS011;57146;48.140;16.304;2023-10-31T05:31:39;0.60;;;0.00;;
69854;SDS011;57146;48.140;16.304;2023-10-31T05:34:06;0.80;;;0.00;;
69854;SDS011;57146;48.140;16.304;2023-10-31T05:36:33;0.60;;;0.00;;
69854;SDS011;57146;48.140;16.304;2023-10-31T05:39:01;0.57;;;0.00;;
69854;SDS011;57146;48.140;16.304;2023-10-31T05:41:28;0.50;;;0.00;;
69854;SDS011;57146;48.140;16.304;2023-10-31T05:43:55;0.45;;;0.00;;
69854;SDS011;57146;48.140;16.304;2023-10-31T05:46:22;0.60;;;0.00;;
69854;SDS011;57146;48.140;16.304;2023-10-31T05:48:49;0.40;;;0.00;;
69854;SDS011;57146;48.140;16.304;2023-10-31T05:51:17;0.50;;;0.00;;
69854;SDS011;57146;48.140;16.304;2023-10-31T05:53:48;0.55;;;0.00;;
69854;SDS011;57146;48.140;16.304;2023-10-31T05:56:15;6.15;;;0.00;;
69854;SDS011;57146;48.140;16.304;2023-10-31T05:58:43;1.23;;;0.00;;
69854;SDS011;57146;48.140;16.304;2023-10-31T06:01:10;0.28;;;0.00;;
69854;SDS011;57146;48.140;16.304;2023-10-31T06:03:37;0.50;;;0.00;;
69854;SDS011;57146;48.140;16.304;2023-10-31T06:06:08;0.70;;;0.00;;
69854;SDS011;57146;48.140;16.304;2023-10-31T06:08:34;0.30;;;0.00;;
69854;SDS011;57146;48.140;16.304;2023-10-31T06:11:03;1.13;;;0.00;;
69854;SDS011;57146;48.140;16.304;2023-10-31T06:13:30;0.40;;;0.00;;
69854;SDS011;57146;48.140;16.304;2023-10-31T06:15:57;0.30;;;0.00;;
69854;SDS011;57146;48.140;16.304;2023-10-31T06:18:27;0.80;;;0.00;;
69854;SDS011;57146;48.140;16.304;2023-10-31T06:20:55;0.73;;;0.00;;
69854;SDS011;57146;48.140;16.304;2023-10-31T06:23:22;0.45;;;0.00;;
69854;SDS011;57146;48.140;16.304;2023-10-31T06:25:50;0.60;;;0.00;;
69854;SDS011;57146;48.140;16.304;2023-10-31T06:28:17;1.70;;;0.00;;
69854;SDS011;57146;48.140;16.304;2023-10-31T06:30:44;0.57;;;0.00;;
69854;SDS011;57146;48.140;16.304;2023-10-31T06:33:11;0.32;;;0.00;;
69854;SDS011;57146;48.140;16.304;2023-10-31T06:35:39;1.33;;;0.00;;
69854;SDS011;57146;48.140;16.304;2023-10-31T06:38:06;1.30;;;0.00;;
69854;SDS011;57146;48.140;16.304;2023-10-31T06:40:33;1.90;;;0.00;;
69854;SDS011;57146;48.140;16.304;2023-10-31T06:43:03;0.30;;;0.00;;
69854;SDS011;57146;48.140;16.304;2023-10-31T06:45:30;0.70;;;0.00;;
69854;SDS011;57146;48.140;16.304;2023-10-31T06:47:57;0.80;;;0.00;;
69854;SDS011;57146;48.140;16.304;2023-10-31T06:50:25;0.17;;;0.00;;
69854;SDS011;57146;48.140;16.304;2023-10-31T06:52:52;0.23;;;0.00;;
69854;SDS011;57146;48.140;16.304;2023-10-31T06:55:19;3.90;;;0.00;;
69854;SDS011;57146;48.140;16.304;2023-10-31T06:57:46;1.63;;;0.00;;
69854;SDS011;57146;48.140;16.304;2023-10-31T07:00:14;0.20;;;0.00;;
69854;SDS011;57146;48.140;16.304;2023-10-31T07:02:41;0.32;;;0.00;;
69854;SDS011;57146;48.140;16.304;2023-10-31T07:05:08;0.70;;;0.00;;
69854;SDS011;57146;48.140;16.304;2023-10-31T07:07:36;1.17;;;0.00;;
69854;SDS011;57146;48.140;16.304;2023-10-31T07:10:03;1.38;;;0.00;;
69854;SDS011;57146;48.140;16.304;2023-10-31T07:12:30;0.10;;;0.00;;
69854;SDS011;57146;48.140;16.304;2023-10-31T07:14:57;0.30;;;0.00;;
69854;SDS011;57146;48.140;16.304;2023-10-31T07:17:25;1.53;;;0.00;;
69854;SDS011;57146;48.140;16.304;2023-10-31T07:19:53;0.30;;;0.00;;
69854;SDS011;57146;48.140;16.304;2023-10-31T07:22:20;1.73;;;0.00;;
69854;SDS011;57146;48.140;16.304;2023-10-31T07:24:47;0.38;;;0.00;;
69854;SDS011;57146;48.140;16.304;2023-10-31T07:27:14;0.82;;;0.00;;
69854;SDS011;57146;48.140;16.304;2023-10-31T07:29:41;1.03;;;0.00;;
69854;SDS011;57146;48.140;16.304;2023-10-31T07:32:08;1.25;;;0.00;;
69854;SDS011;57146;48.140;16.304;2023-10-31T07:34:39;1.05;;;0.00;;
69854;SDS011;57146;48.140;16.304;2023-10-31T07:37:07;1.80;;;0.00;;
69854;SDS011;57146;48.140;16.304;2023-10-31T07:39:35;1.75;;;0.00;;
69854;SDS011;57146;48.140;16.304;2023-10-31T07:42:02;1.67;;;0.00;;
69854;SDS011;57146;48.140;16.304;2023-10-31T07:44:29;1.30;;;0.00;;
69854;SDS011;57146;48.140;16.304;2023-10-31T07:46:56;1.52;;;0.00;;
69854;SDS011;57146;48.140;16.304;2023-10-31T07:49:24;1.17;;;0.03;;
69854;SDS011;57146;48.140;16.304;2023-10-31T07:51:51;0.63;;;0.00;;
69854;SDS011;57146;48.140;16.304;2023-10-31T07:54:18;0.80;;;0.00;;
69854;SDS011;57146;48.140;16.304;2023-10-31T07:56:45;0.32;;;0.00;;
69854;SDS011;57146;48.140;16.304;2023-10-31T07:59:13;0.85;;;0.00;;
69854;SDS011;57146;48.140;16.304;2023-10-31T08:01:40;0.45;;;0.00;;
69854;SDS011;57146;48.140;16.304;2023-10-31T08:04:07;2.10;;;0.00;;
69854;SDS011;57146;48.140;16.304;2023-10-31T08:06:35;1.13;;;0.00;;
69854;SDS011;57146;48.140;16.304;2023-10-31T08:09:02;0.10;;;0.00;;
69854;SDS011;57146;48.140;16.304;2023-10-31T08:11:32;1.00;;;0.00;;
69854;SDS011;57146;48.140;16.304;2023-10-31T08:13:59;0.45;;;0.00;;
69854;SDS011;57146;48.140;16.304;2023-10-31T08:16:26;1.17;;;0.00;;
69854;SDS011;57146;48.140;16.304;2023-10-31T08:18:53;0.40;;;0.00;;
69854;SDS011;57146;48.140;16.304;2023-10-31T08:21:20;1.27;;;0.00;;
69854;SDS011;57146;48.140;16.304;2023-10-31T08:23:47;1.15;;;0.00;;
69854;SDS011;57146;48.140;16.304;2023-10-31T08:26:14;0.68;;;0.00;;
69854;SDS011;57146;48.140;16.304;2023-10-31T08:28:42;0.60;;;0.00;;
69854;SDS011;57146;48.140;16.304;2023-10-31T08:31:09;0.67;;;0.00;;
69854;SDS011;57146;48.140;16.304;2023-10-31T08:33:36;0.90;;;0.00;;
69854;SDS011;57146;48.140;16.304;2023-10-31T08:36:05;0.98;;;0.00;;
69854;SDS011;57146;48.140;16.304;2023-10-31T08:38:32;0.57;;;0.00;;
69854;SDS011;57146;48.140;16.304;2023-10-31T08:40:59;0.22;;;0.00;;
69854;SDS011;57146;48.140;16.304;2023-10-31T08:43:26;18.17;;;0.93;;
69854;SDS011;57146;48.140;16.304;2023-10-31T08:45:53;3.53;;;0.00;;
69854;SDS011;57146;48.140;16.304;2023-10-31T08:48:21;2.08;;;0.00;;
69854;SDS011;57146;48.140;16.304;2023-10-31T08:50:48;1.73;;;0.00;;
69854;SDS011;57146;48.140;16.304;2023-10-31T08:53:16;16.73;;;0.40;;
69854;SDS011;57146;48.140;16.304;2023-10-31T08:55:44;7.93;;;0.80;;
69854;SDS011;57146;48.140;16.304;2023-10-31T08:58:12;6.47;;;0.00;;
69854;SDS011;57146;48.140;16.304;2023-10-31T09:00:41;6.75;;;0.15;;
69854;SDS011;57146;48.140;16.304;2023-10-31T09:03:09;3.92;;;0.10;;
69854;SDS011;57146;48.140;16.304;2023-10-31T09:05:36;1.30;;;0.00;;
69854;SDS011;57146;48.140;16.304;2023-10-31T09:08:04;2.27;;;0.00;;
69854;SDS011;57146;48.140;16.304;2023-10-31T09:10:31;0.98;;;0.00;;
69854;SDS011;57146;48.140;16.304;2023-10-31T09:12:59;0.30;;;0.00;;
69854;SDS011;57146;48.140;16.304;2023-10-31T09:15:26;0.85;;;0.00;;
69854;SDS011;57146;48.140;16.304;2023-10-31T09:17:53;1.13;;;0.00;;
69854;SDS011;57146;48.140;16.304;2023-10-31T09:20:20;1.50;;;0.00;;
69854;SDS011;57146;48.140;16.304;2023-10-31T09:22:48;1.65;;;0.00;;
69854;SDS011;57146;48.140;16.304;2023-10-31T09:25:15;1.35;;;0.00;;
69854;SDS011;57146;48.140;16.304;2023-10-31T09:27:42;1.05;;;0.00;;
69854;SDS011;57146;48.140;16.304;2023-10-31T09:30:09;0.10;;;0.00;;
69854;SDS011;57146;48.140;16.304;2023-10-31T09:32:36;0.80;;;0.00;;
69854;SDS011;57146;48.140;16.304;2023-10-31T09:35:04;2.13;;;0.00;;
69854;SDS011;57146;48.140;16.304;2023-10-31T09:37:31;0.43;;;0.00;;
69854;SDS011;57146;48.140;16.304;2023-10-31T09:39:58;1.17;;;0.00;;
69854;SDS011;57146;48.140;16.304;2023-10-31T09:42:26;0.55;;;0.00;;
69854;SDS011;57146;48.140;16.304;2023-10-31T09:44:53;0.70;;;0.00;;
69854;SDS011;57146;48.140;16.304;2023-10-31T09:47:20;0.30;;;0.00;;
69854;SDS011;57146;48.140;16.304;2023-10-31T09:49:48;1.30;;;0.00;;
69854;SDS011;57146;48.140;16.304;2023-10-31T09:52:15;2.13;;;0.00;;
69854;SDS011;57146;48.140;16.304;2023-10-31T09:54:42;0.75;;;0.00;;
69854;SDS011;57146;48.140;16.304;2023-10-31T09:57:13;2.70;;;0.00;;
69854;SDS011;57146;48.140;16.304;2023-10-31T09:59:41;18.13;;;0.77;;
69854;SDS011;57146;48.140;16.304;2023-10-31T10:02:08;4.75;;;0.00;;
69854;SDS011;57146;48.140;16.304;2023-10-31T10:04:36;2.30;;;0.00;;
69854;SDS011;57146;48.140;16.304;2023-10-31T10:07:04;2.00;;;0.10;;
69854;SDS011;57146;48.140;16.304;2023-10-31T10:09:32;2.70;;;0.37;;
69854;SDS011;57146;48.140;16.304;2023-10-31T10:11:59;15.10;;;1.05;;
69854;SDS011;57146;48.140;16.304;2023-10-31T10:14:27;2.33;;;0.00;;
69854;SDS011;57146;48.140;16.304;2023-10-31T10:16:55;1.27;;;0.00;;
69854;SDS011;57146;48.140;16.304;2023-10-31T10:19:23;1.67;;;0.00;;
69854;SDS011;57146;48.140;16.304;2023-10-31T10:21:57;1.33;;;0.00;;
69854;SDS011;57146;48.140;16.304;2023-10-31T10:24:27;4.10;;;0.00;;
69854;SDS011;57146;48.140;16.304;2023-10-31T10:26:56;1.10;;;0.00;;
69854;SDS011;57146;48.140;16.304;2023-10-31T10:29:23;1.77;;;0.00;;
69854;SDS011;57146;48.140;16.304;2023-10-31T10:31:51;4.15;;;0.10;;
69854;SDS011;57146;48.140;16.304;2023-10-31T10:34:18;2.13;;;0.00;;
69854;SDS011;57146;48.140;16.304;2023-10-31T10:36:46;2.08;;;0.00;;
69854;SDS011;57146;48.140;16.304;2023-10-31T10:39:19;0.95;;;0.00;;
69854;SDS011;57146;48.140;16.304;2023-10-31T10:41:53;1.88;;;0.00;;
69854;SDS011;57146;48.140;16.304;2023-10-31T10:44:34;2.03;;;0.03;;
69854;SDS011;57146;48.140;16.304;2023-10-31T10:47:04;1.30;;;0.00;;
69854;SDS011;57146;48.140;16.304;2023-10-31T10:49:34;2.17;;;0.00;;
69854;SDS011;57146;48.140;16.304;2023-10-31T11:00:08;1.07;;;0.00;;
69854;SDS011;57146;48.140;16.304;2023-10-31T11:02:36;2.95;;;0.00;;
69854;SDS011;57146;48.140;16.304;2023-10-31T11:05:07;1.48;;;0.00;;
69854;SDS011;57146;48.140;16.304;2023-10-31T11:07:38;1.67;;;0.00;;
69854;SDS011;57146;48.140;16.304;2023-10-31T11:10:09;1.65;;;0.10;;
69854;SDS011;57146;48.140;16.304;2023-10-31T11:12:37;1.87;;;0.00;;
69854;SDS011;57146;48.140;16.304;2023-10-31T11:15:05;1.40;;;0.00;;
69854;SDS011;57146;48.140;16.304;2023-10-31T11:17:37;2.03;;;0.00;;
69854;SDS011;57146;48.140;16.304;2023-10-31T11:20:07;1.73;;;0.00;;
69854;SDS011;57146;48.140;16.304;2023-10-31T11:22:39;1.45;;;0.00;;
69854;SDS011;57146;48.140;16.304;2023-10-31T11:25:12;0.80;;;0.00;;
69854;SDS011;57146;48.140;16.304;2023-10-31T11:27:53;3.53;;;0.00;;
69854;SDS011;57146;48.140;16.304;2023-10-31T11:30:21;1.50;;;0.00;;
69854;SDS011;57146;48.140;16.304;2023-10-31T11:32:51;1.33;;;0.00;;
69854;SDS011;57146;48.140;16.304;2023-10-31T11:35:19;1.80;;;0.00;;
69854;SDS011;57146;48.140;16.304;2023-10-31T11:37:48;1.90;;;0.00;;
69854;SDS011;57146;48.140;16.304;2023-10-31T11:40:16;2.03;;;0.00;;
69854;SDS011;57146;48.140;16.304;2023-10-31T11:42:49;1.20;;;0.00;;
69854;SDS011;57146;48.140;16.304;2023-10-31T11:48:44;0.95;;;0.00;;
69854;SDS011;57146;48.140;16.304;2023-10-31T11:51:13;1.40;;;0.00;;
69854;SDS011;57146;48.140;16.304;2023-10-31T11:53:40;0.55;;;0.00;;
69854;SDS011;57146;48.140;16.304;2023-10-31T11:56:17;0.65;;;0.00;;
69854;SDS011;57146;48.140;16.304;2023-10-31T11:58:45;1.67;;;0.13;;
69854;SDS011;57146;48.140;16.304;2023-10-31T12:01:21;0.50;;;0.00;;
69854;SDS011;57146;48.140;16.304;2023-10-31T12:03:50;0.30;;;0.00;;
69854;SDS011;57146;48.140;16.304;2023-10-31T12:06:18;0.38;;;0.00;;
69854;SDS011;57146;48.140;16.304;2023-10-31T12:08:45;0.40;;;0.00;;
69854;SDS011;57146;48.140;16.304;2023-10-31T12:13:52;1.15;;;0.00;;
69854;SDS011;57146;48.140;16.304;2023-10-31T12:16:28;0.50;;;0.00;;
69854;SDS011;57146;48.140;16.304;2023-10-31T12:18:57;0.75;;;0.00;;
69854;SDS011;57146;48.140;16.304;2023-10-31T12:21:35;0.90;;;0.00;;
69854;SDS011;57146;48.140;16.304;2023-10-31T12:24:07;0.35;;;0.00;;
69854;SDS011;57146;48.140;16.304;2023-10-31T12:26:36;1.25;;;0.00;;
69854;SDS011;57146;48.140;16.304;2023-10-31T12:29:06;0.50;;;0.00;;
69854;SDS011;57146;48.140;16.304;2023-10-31T12:31:47;0.55;;;0.00;;
69854;SDS011;57146;48.140;16.304;2023-10-31T12:34:16;0.60;;;0.00;;
69854;SDS011;57146;48.140;16.304;2023-10-31T12:36:44;1.10;;;0.00;;
69854;SDS011;57146;48.140;16.304;2023-10-31T12:39:13;0.68;;;0.00;;
69854;SDS011;57146;48.140;16.304;2023-10-31T12:41:41;0.10;;;0.00;;
69854;SDS011;57146;48.140;16.304;2023-10-31T12:44:10;0.40;;;0.00;;
69854;SDS011;57146;48.140;16.304;2023-10-31T12:46:40;0.32;;;0.00;;
69854;SDS011;57146;48.140;16.304;2023-10-31T12:49:12;0.22;;;0.00;;
69854;SDS011;57146;48.140;16.304;2023-10-31T12:51:54;0.80;;;0.00;;
69854;SDS011;57146;48.140;16.304;2023-10-31T12:54:35;1.30;;;0.00;;
69854;SDS011;57146;48.140;16.304;2023-10-31T12:57:08;0.57;;;0.00;;
69854;SDS011;57146;48.140;16.304;2023-10-31T12:59:36;1.67;;;0.00;;
69854;SDS011;57146;48.140;16.304;2023-10-31T13:02:05;0.95;;;0.00;;
69854;SDS011;57146;48.140;16.304;2023-10-31T13:04:34;2.00;;;0.00;;
69854;SDS011;57146;48.140;16.304;2023-10-31T13:07:02;0.47;;;0.00;;
69854;SDS011;57146;48.140;16.304;2023-10-31T13:09:32;0.55;;;0.00;;
69854;SDS011;57146;48.140;16.304;2023-10-31T13:12:01;1.15;;;0.00;;
69854;SDS011;57146;48.140;16.304;2023-10-31T13:14:29;1.33;;;0.00;;
69854;SDS011;57146;48.140;16.304;2023-10-31T13:16:57;0.93;;;0.00;;
69854;SDS011;57146;48.140;16.304;2023-10-31T13:19:24;0.60;;;0.00;;
69854;SDS011;57146;48.140;16.304;2023-10-31T13:21:54;1.00;;;0.00;;
69854;SDS011;57146;48.140;16.304;2023-10-31T13:24:21;0.38;;;0.00;;
69854;SDS011;57146;48.140;16.304;2023-10-31T13:26:48;0.73;;;0.00;;
69854;SDS011;57146;48.140;16.304;2023-10-31T13:29:15;0.35;;;0.00;;
69854;SDS011;57146;48.140;16.304;2023-10-31T13:31:43;0.57;;;0.00;;
69854;SDS011;57146;48.140;16.304;2023-10-31T13:34:10;1.20;;;0.00;;
69854;SDS011;57146;48.140;16.304;2023-10-31T13:36:37;0.43;;;0.00;;
69854;SDS011;57146;48.140;16.304;2023-10-31T13:39:04;1.23;;;0.00;;
69854;SDS011;57146;48.140;16.304;2023-10-31T13:41:31;0.60;;;0.00;;
69854;SDS011;57146;48.140;16.304;2023-10-31T13:43:58;1.67;;;0.00;;
69854;SDS011;57146;48.140;16.304;2023-10-31T13:46:26;1.20;;;0.00;;
69854;SDS011;57146;48.140;16.304;2023-10-31T13:48:53;0.60;;;0.00;;
69854;SDS011;57146;48.140;16.304;2023-10-31T13:51:20;0.45;;;0.00;;
69854;SDS011;57146;48.140;16.304;2023-10-31T13:53:48;0.40;;;0.00;;
69854;SDS011;57146;48.140;16.304;2023-10-31T13:56:15;0.50;;;0.00;;
69854;SDS011;57146;48.140;16.304;2023-10-31T13:58:43;1.85;;;0.00;;
69854;SDS011;57146;48.140;16.304;2023-10-31T14:01:10;2.05;;;0.00;;
69854;SDS011;57146;48.140;16.304;2023-10-31T14:03:37;0.85;;;0.00;;
69854;SDS011;57146;48.140;16.304;2023-10-31T14:06:05;1.45;;;0.00;;
69854;SDS011;57146;48.140;16.304;2023-10-31T14:08:33;0.97;;;0.00;;
69854;SDS011;57146;48.140;16.304;2023-10-31T14:11:00;0.60;;;0.00;;
69854;SDS011;57146;48.140;16.304;2023-10-31T14:13:27;0.47;;;0.00;;
69854;SDS011;57146;48.140;16.304;2023-10-31T14:15:55;0.95;;;0.00;;
69854;SDS011;57146;48.140;16.304;2023-10-31T14:18:22;1.08;;;0.00;;
69854;SDS011;57146;48.140;16.304;2023-10-31T14:20:49;1.60;;;0.00;;
69854;SDS011;57146;48.140;16.304;2023-10-31T14:23:16;1.02;;;0.00;;
69854;SDS011;57146;48.140;16.304;2023-10-31T14:25:44;0.57;;;0.00;;
69854;SDS011;57146;48.140;16.304;2023-10-31T14:28:11;0.75;;;0.00;;
69854;SDS011;57146;48.140;16.304;2023-10-31T14:30:38;0.45;;;0.00;;
69854;SDS011;57146;48.140;16.304;2023-10-31T14:33:05;1.80;;;0.00;;
69854;SDS011;57146;48.140;16.304;2023-10-31T14:35:32;0.90;;;0.00;;
69854;SDS011;57146;48.140;16.304;2023-10-31T14:38:00;1.65;;;0.00;;
69854;SDS011;57146;48.140;16.304;2023-10-31T14:40:27;1.27;;;0.00;;
69854;SDS011;57146;48.140;16.304;2023-10-31T14:42:54;0.80;;;0.00;;
69854;SDS011;57146;48.140;16.304;2023-10-31T14:45:21;1.03;;;0.00;;
69854;SDS011;57146;48.140;16.304;2023-10-31T14:47:48;0.77;;;0.00;;
69854;SDS011;57146;48.140;16.304;2023-10-31T14:50:15;0.70;;;0.00;;
69854;SDS011;57146;48.140;16.304;2023-10-31T14:52:42;1.45;;;0.00;;